createdAt,value
2018-06-21T00:00:08.904Z,89.28
2018-06-21T00:01:08.654Z,89.57
2018-06-21T00:02:08.635Z,90.05
2018-06-21T00:03:08.503Z,90.63
2018-06-21T00:04:08.568Z,89.28
2018-06-21T00:05:08.339Z,89.37
2018-06-21T00:06:08.399Z,89.37
2018-06-21T00:07:08.211Z,88.89
2018-06-21T00:08:08.172Z,90.34
2018-06-21T00:09:08.033Z,89.67
2018-06-21T00:10:08.076Z,89.28
2018-06-21T00:11:07.909Z,89.33
2018-06-21T00:12:07.880Z,90.48
2018-06-21T00:13:07.734Z,89.91
2018-06-21T00:14:07.694Z,90.48
2018-06-21T00:15:07.577Z,91.83
2018-06-21T00:16:08.460Z,91.06
2018-06-21T00:17:07.428Z,90.97
2018-06-21T00:28:30.970Z,91.16
2018-06-21T00:31:12.738Z,92.37
2018-06-21T00:32:12.759Z,91.79
2018-06-21T00:33:12.586Z,91.60
2018-06-21T00:34:12.518Z,92.27
2018-06-21T00:35:12.428Z,92.18
2018-06-21T00:36:12.447Z,92.76
2018-06-21T00:37:12.300Z,92.66
2018-06-21T00:38:12.250Z,92.08
2018-06-21T00:39:12.118Z,92.18
2018-06-21T00:40:12.215Z,91.99
2018-06-21T00:41:11.970Z,92.66
2018-06-21T00:42:12.000Z,92.76
2018-06-21T00:43:11.821Z,93.52
2018-06-21T00:44:11.774Z,93.38
2018-06-21T00:45:11.662Z,92.80
2018-06-21T00:46:11.698Z,92.71
2018-06-21T00:47:11.537Z,93.29
2018-06-21T00:48:11.494Z,93.57
2018-06-21T00:49:11.362Z,94.15
2018-06-21T00:50:11.311Z,94.06
2018-06-21T00:51:11.220Z,94.54
2018-06-21T00:52:11.224Z,94.64
2018-06-21T00:53:11.063Z,94.54
2018-06-21T00:54:11.024Z,94.73
2018-06-21T00:55:10.892Z,94.54
2018-06-21T00:56:10.956Z,95.40
2018-06-21T00:57:10.759Z,95.69
2018-06-21T00:58:10.794Z,94.82
2018-06-21T00:59:10.589Z,95.60
2018-06-21T01:00:10.514Z,95.12
2018-06-21T01:01:10.438Z,95.21
2018-06-21T01:02:10.458Z,95.50
2018-06-21T01:03:10.306Z,95.31
2018-06-21T01:04:10.263Z,95.50
2018-06-21T01:05:10.123Z,95.50
2018-06-21T01:06:10.091Z,95.40
2018-06-21T01:07:09.980Z,95.40
2018-06-21T01:08:10.052Z,95.31
2018-06-21T01:09:09.829Z,95.50
2018-06-21T01:10:09.796Z,94.54
2018-06-21T01:11:09.666Z,95.31
2018-06-21T01:12:09.709Z,95.40
2018-06-21T01:13:09.528Z,95.60
2018-06-21T01:15:51.749Z,95.21
2018-06-21T01:16:51.737Z,95.60
2018-06-21T01:17:51.595Z,96.46
2018-06-21T01:18:51.798Z,95.89
2018-06-21T01:19:51.436Z,95.98
2018-06-21T01:20:51.459Z,96.08
2018-06-21T01:21:51.308Z,95.98
2018-06-21T01:24:33.277Z,96.27
2018-06-21T01:27:15.282Z,96.08
2018-06-21T01:28:15.273Z,96.46
2018-06-21T01:29:15.130Z,95.89
2018-06-21T01:30:15.147Z,95.40
2018-06-21T01:31:14.964Z,95.89
2018-06-21T01:32:14.992Z,96.27
2018-06-21T01:33:14.785Z,96.37
2018-06-21T01:34:14.814Z,96.08
2018-06-21T01:35:14.644Z,96.56
2018-06-21T01:36:14.680Z,96.66
2018-06-21T01:37:14.480Z,97.14
2018-06-21T01:38:14.493Z,97.24
2018-06-21T01:39:14.368Z,97.28
2018-06-21T01:40:14.301Z,97.52
2018-06-21T01:41:14.185Z,97.47
2018-06-21T01:42:14.209Z,97.86
2018-06-21T01:43:14.009Z,98.34
2018-06-21T01:44:15.089Z,98.34
2018-06-21T01:45:13.864Z,98.54
2018-06-21T01:47:55.759Z,99.21
2018-06-21T01:48:55.719Z,98.82
2018-06-21T01:51:20.273Z,98.63
2018-06-21T01:52:20.222Z,98.24
2018-06-21T01:53:20.112Z,99.01
2018-06-21T01:54:20.118Z,98.63
2018-06-21T01:55:19.977Z,98.82
2018-06-21T01:56:19.927Z,99.21
2018-06-21T01:57:19.799Z,99.21
2018-06-21T01:58:20.132Z,98.82
2018-06-21T01:59:19.640Z,99.40
2018-06-21T02:00:19.599Z,99.40
2018-06-21T02:01:19.486Z,99.78
2018-06-21T02:02:19.507Z,99.49
2018-06-21T02:03:19.349Z,99.99
2018-06-21T02:04:19.398Z,99.99
2018-06-21T02:05:19.183Z,99.88
2018-06-21T02:06:19.179Z,99.99
2018-06-21T02:07:19.049Z,99.99
2018-06-21T02:08:18.987Z,99.99
2018-06-21T02:09:18.873Z,99.99
2018-06-21T02:10:18.897Z,99.99
2018-06-21T02:11:18.750Z,99.99
2018-06-21T02:15:00.769Z,99.99
2018-06-21T02:16:00.779Z,99.99
2018-06-21T02:17:00.616Z,99.99
2018-06-21T02:19:42.781Z,99.99
2018-06-21T02:20:42.768Z,99.99
2018-06-21T02:21:42.631Z,99.99
2018-06-21T02:22:42.675Z,99.99
2018-06-21T02:23:42.454Z,99.99
2018-06-21T02:24:42.445Z,99.99
2018-06-21T02:25:42.305Z,99.99
2018-06-21T02:26:42.270Z,99.99
2018-06-21T02:27:42.305Z,99.99
2018-06-21T02:28:42.164Z,99.99
2018-06-21T02:29:41.992Z,99.99
2018-06-21T02:30:41.980Z,99.99
2018-06-21T02:31:41.848Z,99.99
2018-06-21T02:32:41.841Z,99.99
2018-06-21T02:33:41.686Z,99.99
2018-06-21T02:36:23.788Z,99.99
2018-06-21T02:37:23.845Z,99.99
2018-06-21T02:38:23.612Z,99.99
2018-06-21T02:39:23.600Z,99.99
2018-06-21T02:40:23.465Z,99.99
2018-06-21T02:41:23.521Z,99.99
2018-06-21T02:42:23.338Z,99.99
2018-06-21T02:43:23.319Z,99.99
2018-06-21T02:44:23.212Z,99.99
2018-06-21T02:45:23.125Z,99.99
2018-06-21T02:46:23.000Z,99.99
2018-06-21T02:49:05.318Z,99.99
2018-06-21T02:50:05.235Z,99.99
2018-06-21T02:51:05.126Z,99.99
2018-06-21T02:52:05.158Z,99.99
2018-06-21T02:53:05.001Z,99.99
2018-06-21T02:54:06.023Z,99.99
2018-06-21T02:55:04.815Z,99.99
2018-06-21T02:56:04.771Z,99.99
2018-06-21T02:57:04.675Z,99.99
2018-06-21T02:58:04.675Z,99.99
2018-06-21T02:59:04.554Z,99.99
2018-06-21T03:00:04.488Z,99.99
2018-06-21T03:01:04.357Z,99.99
2018-06-21T03:02:04.294Z,99.99
2018-06-21T03:03:04.199Z,99.99
2018-06-21T03:04:04.319Z,99.99
2018-06-21T03:05:04.035Z,99.99
2018-06-21T03:06:04.023Z,99.99
2018-06-21T03:07:03.877Z,99.99
2018-06-21T03:08:03.924Z,99.99
2018-06-21T03:09:03.773Z,99.93
2018-06-21T03:10:03.766Z,99.99
2018-06-21T03:11:03.567Z,99.99
2018-06-21T03:12:03.507Z,99.99
2018-06-21T03:13:03.402Z,99.99
2018-06-21T03:14:03.385Z,99.99
2018-06-21T03:15:03.273Z,99.99
2018-06-21T03:16:03.270Z,99.99
2018-06-21T03:17:03.098Z,99.99
2018-06-21T03:18:03.078Z,99.99
2018-06-21T03:19:02.996Z,99.99
2018-06-21T03:20:02.977Z,99.99
2018-06-21T03:21:02.784Z,99.99
2018-06-21T03:23:44.808Z,99.99
2018-06-21T03:24:50.058Z,99.99
2018-06-21T03:25:44.625Z,99.99
2018-06-21T03:26:49.627Z,99.99
2018-06-21T03:27:44.494Z,99.99
2018-06-21T03:28:44.505Z,99.99
2018-06-21T03:29:44.368Z,99.99
2018-06-21T03:30:44.318Z,99.99
2018-06-21T03:31:44.162Z,99.99
2018-06-21T03:32:44.121Z,99.99
2018-06-21T03:33:44.007Z,99.99
2018-06-21T03:34:44.075Z,99.99
2018-06-21T03:35:43.857Z,99.99
2018-06-21T03:36:43.841Z,99.99
2018-06-21T03:37:43.699Z,99.99
2018-06-21T03:38:43.648Z,99.99
2018-06-21T03:39:43.546Z,99.99
2018-06-21T03:40:43.601Z,99.99
2018-06-21T03:41:43.385Z,99.99
2018-06-21T03:42:43.369Z,99.99
2018-06-21T03:43:43.238Z,99.99
2018-06-21T03:44:43.187Z,99.99
2018-06-21T03:45:43.090Z,99.99
2018-06-21T03:46:43.088Z,99.99
2018-06-21T03:47:42.936Z,99.99
2018-06-21T03:48:42.852Z,99.99
2018-06-21T03:49:42.762Z,99.99
2018-06-21T03:50:42.732Z,99.99
2018-06-21T03:51:42.766Z,99.99
2018-06-21T03:52:42.620Z,99.99
2018-06-21T03:53:42.438Z,99.99
2018-06-21T03:54:42.425Z,99.99
2018-06-21T03:55:42.291Z,99.99
2018-06-21T03:56:42.376Z,99.99
2018-06-21T03:57:42.152Z,99.99
2018-06-21T03:58:42.160Z,99.99
2018-06-21T03:59:41.989Z,99.99
2018-06-21T04:00:42.109Z,99.99
2018-06-21T04:01:41.835Z,99.99
2018-06-21T04:02:42.825Z,99.99
2018-06-21T04:03:41.671Z,99.99
2018-06-21T04:06:23.820Z,99.99
2018-06-21T04:07:23.794Z,99.99
2018-06-21T04:08:23.945Z,99.99
2018-06-21T04:09:23.596Z,99.99
2018-06-21T04:10:23.505Z,99.99
2018-06-21T04:11:23.499Z,99.99
2018-06-21T04:12:23.363Z,99.99
2018-06-21T04:13:23.337Z,99.99
2018-06-21T04:14:23.166Z,99.99
2018-06-21T04:15:23.225Z,99.99
2018-06-21T04:16:23.011Z,99.99
2018-06-21T04:19:05.364Z,99.99
2018-06-21T04:20:05.320Z,99.99
2018-06-21T04:21:05.148Z,99.99
2018-06-21T04:22:05.132Z,99.99
2018-06-21T04:23:04.989Z,99.99
2018-06-21T04:24:04.988Z,99.99
2018-06-21T04:25:04.843Z,99.99
2018-06-21T04:26:04.859Z,99.99
2018-06-21T04:27:04.680Z,99.99
2018-06-21T04:29:46.876Z,99.99
2018-06-21T04:30:46.758Z,99.99
2018-06-21T04:31:46.651Z,99.99
2018-06-21T04:32:46.665Z,99.99
2018-06-21T04:33:46.508Z,99.99
2018-06-21T04:34:46.426Z,99.99
2018-06-21T04:35:46.340Z,99.99
2018-06-21T04:36:46.284Z,99.99
2018-06-21T04:37:46.236Z,99.99
2018-06-21T04:38:46.174Z,99.99
2018-06-21T04:39:46.031Z,99.99
2018-06-21T04:40:45.950Z,99.99
2018-06-21T04:41:45.868Z,99.99
2018-06-21T04:42:45.807Z,99.99
2018-06-21T04:43:45.726Z,99.99
2018-06-21T04:44:46.652Z,99.99
2018-06-21T04:45:45.571Z,99.99
2018-06-21T04:46:48.393Z,99.99
2018-06-21T04:47:45.412Z,99.99
2018-06-21T04:48:45.360Z,99.99
2018-06-21T04:49:45.268Z,99.99
2018-06-21T04:52:27.319Z,99.99
2018-06-21T04:53:27.240Z,99.99
2018-06-21T04:54:27.192Z,99.99
2018-06-21T04:57:09.338Z,99.99
2018-06-21T04:58:09.245Z,99.99
2018-06-21T04:59:09.158Z,99.99
2018-06-21T05:00:09.157Z,99.99
2018-06-21T05:01:09.001Z,99.99
2018-06-21T05:03:51.328Z,99.99
2018-06-21T05:04:51.272Z,99.99
2018-06-21T05:05:51.189Z,99.99
2018-06-21T05:08:33.344Z,99.99
2018-06-21T05:09:33.253Z,99.99
2018-06-21T05:10:33.210Z,99.99
2018-06-21T05:11:33.095Z,99.99
2018-06-21T05:12:33.028Z,99.99
2018-06-21T05:13:32.944Z,99.99
2018-06-21T05:14:32.864Z,99.99
2018-06-21T05:15:32.844Z,99.99
2018-06-21T05:16:32.726Z,99.99
2018-06-21T05:19:14.841Z,99.99
2018-06-21T05:20:14.839Z,99.99
2018-06-21T05:21:14.685Z,99.99
2018-06-21T05:23:56.824Z,99.99
2018-06-21T05:24:56.753Z,99.99
2018-06-21T05:25:56.688Z,99.99
2018-06-21T05:26:56.600Z,99.99
2018-06-21T05:27:56.510Z,99.99
2018-06-21T05:28:56.450Z,99.99
2018-06-21T05:29:56.374Z,99.99
2018-06-21T05:30:56.302Z,99.99
2018-06-21T05:31:56.202Z,99.99
2018-06-21T05:36:56.124Z,99.99
2018-06-21T05:37:55.034Z,99.99
2018-06-21T05:40:36.854Z,99.99
2018-06-21T05:41:38.065Z,99.99
2018-06-21T05:42:36.688Z,99.99
2018-06-21T05:43:36.690Z,99.99
2018-06-21T05:44:36.518Z,99.99
2018-06-21T05:45:36.512Z,99.99
2018-06-21T05:46:36.391Z,99.99
2018-06-21T05:47:36.318Z,99.99
2018-06-21T05:48:36.201Z,99.99
2018-06-21T05:51:18.349Z,99.99
2018-06-21T05:52:18.363Z,99.99
2018-06-21T05:53:18.226Z,99.99
2018-06-21T05:54:18.236Z,99.99
2018-06-21T05:55:18.028Z,99.99
2018-06-21T05:56:18.044Z,99.99
2018-06-21T05:57:17.857Z,99.99
2018-06-21T06:00:25.337Z,99.99
2018-06-21T06:01:25.341Z,99.99
2018-06-21T06:02:25.202Z,99.99
2018-06-21T06:03:25.199Z,99.99
2018-06-21T06:04:25.048Z,99.99
2018-06-21T06:05:25.062Z,99.99
2018-06-21T06:06:24.872Z,99.99
2018-06-21T06:09:06.861Z,99.99
2018-06-21T06:10:06.909Z,99.99
2018-06-21T06:11:06.692Z,99.99
2018-06-21T06:12:06.679Z,99.99
2018-06-21T06:13:06.553Z,99.99
2018-06-21T06:14:06.551Z,99.99
2018-06-21T06:15:06.364Z,99.99
2018-06-21T06:16:06.427Z,99.99
2018-06-21T06:17:06.230Z,99.99
2018-06-21T06:18:06.220Z,99.99
2018-06-21T06:19:06.116Z,99.99
2018-06-21T06:20:06.037Z,99.99
2018-06-21T06:21:05.907Z,99.99
2018-06-21T06:22:05.953Z,99.99
2018-06-21T06:23:05.880Z,99.99
2018-06-21T06:24:06.807Z,99.99
2018-06-21T06:25:05.582Z,99.99
2018-06-21T06:26:05.542Z,99.99
2018-06-21T06:27:05.431Z,99.99
2018-06-21T06:28:05.451Z,99.99
2018-06-21T06:29:05.304Z,99.99
2018-06-21T06:31:47.336Z,99.99
2018-06-21T06:32:47.389Z,99.99
2018-06-21T06:33:47.195Z,99.99
2018-06-21T06:34:48.363Z,99.99
2018-06-21T06:35:47.034Z,99.99
2018-06-21T06:36:46.991Z,99.99
2018-06-21T06:37:46.881Z,99.99
2018-06-21T06:40:28.877Z,99.99
2018-06-21T06:43:10.850Z,99.99
2018-06-21T06:44:10.886Z,99.99
2018-06-21T06:45:10.705Z,99.99
2018-06-21T06:47:52.859Z,99.99
2018-06-21T06:50:34.867Z,99.99
2018-06-21T06:51:34.897Z,99.99
2018-06-21T06:52:34.719Z,99.99
2018-06-21T06:55:16.958Z,99.99
2018-06-21T06:57:58.860Z,99.99
2018-06-21T06:58:58.910Z,99.99
2018-06-21T06:59:58.702Z,99.99
2018-06-21T07:00:58.778Z,99.99
2018-06-21T07:01:58.549Z,99.99
2018-06-21T07:04:40.375Z,99.99
2018-06-21T07:05:40.346Z,99.99
2018-06-21T07:06:40.225Z,99.99
2018-06-21T07:07:40.319Z,99.99
2018-06-21T07:11:37.029Z,99.99
2018-06-21T07:12:37.104Z,99.99
2018-06-21T07:15:18.863Z,99.99
2018-06-21T07:18:00.912Z,99.99
2018-06-21T07:19:00.884Z,99.99
2018-06-21T07:20:00.700Z,99.99
2018-06-21T07:22:42.870Z,99.99
2018-06-21T07:25:07.366Z,99.99
2018-06-21T07:26:07.367Z,99.99
2018-06-21T07:27:07.246Z,99.99
2018-06-21T07:28:07.195Z,99.99
2018-06-21T07:29:07.048Z,99.99
2018-06-21T07:31:49.364Z,99.99
2018-06-21T07:32:49.443Z,99.99
2018-06-21T07:33:49.227Z,99.99
2018-06-21T07:34:49.206Z,99.88
2018-06-21T07:35:49.057Z,99.11
2018-06-21T07:36:49.065Z,99.74
2018-06-21T07:37:48.903Z,99.74
2018-06-21T07:40:30.919Z,98.49
2018-06-21T07:41:30.830Z,99.26
2018-06-21T07:43:40.475Z,99.99
2018-06-21T07:44:40.254Z,99.99
2018-06-21T07:45:41.330Z,99.99
2018-06-21T08:00:10.617Z,96.32
2018-06-21T08:01:10.579Z,95.75
2018-06-21T08:02:10.403Z,95.75
2018-06-21T08:03:10.326Z,95.26
2018-06-21T08:04:10.262Z,95.07
2018-06-21T08:05:10.244Z,94.49
2018-06-21T08:06:10.093Z,93.48
2018-06-21T08:08:52.399Z,91.85
2018-06-21T08:11:34.402Z,92.43
2018-06-21T08:12:34.427Z,92.04
2018-06-21T08:13:34.266Z,92.43
2018-06-21T08:14:35.306Z,91.46
2018-06-21T08:15:34.131Z,91.17
2018-06-21T08:16:34.024Z,91.27
2018-06-21T08:17:33.919Z,92.52
2018-06-21T08:18:34.892Z,92.33
2018-06-21T08:19:33.797Z,93.10
2018-06-21T08:20:33.735Z,92.33
2018-06-21T08:21:33.602Z,92.52
2018-06-21T08:22:33.534Z,92.61
2018-06-21T08:23:33.502Z,91.85
2018-06-21T08:24:34.428Z,92.76
2018-06-21T08:25:33.334Z,90.93
2018-06-21T08:26:33.269Z,89.97
2018-06-21T08:27:33.138Z,89.29
2018-06-21T08:28:33.176Z,88.67
2018-06-21T08:29:33.008Z,86.93
2018-06-21T08:30:33.013Z,85.97
2018-06-21T08:31:32.819Z,86.69
2018-06-21T08:34:14.881Z,86.79
2018-06-21T08:35:14.942Z,85.39
2018-06-21T08:36:14.758Z,84.52
2018-06-21T08:38:56.924Z,79.24
2018-06-21T08:39:56.936Z,80.10
2018-06-21T08:40:56.851Z,78.11
2018-06-21T08:41:56.683Z,74.96
2018-06-21T08:42:56.573Z,73.26
2018-06-21T08:43:56.648Z,72.55
2018-06-21T08:44:56.499Z,73.02
2018-06-21T08:45:56.473Z,74.95
2018-06-21T08:46:56.303Z,76.65
2018-06-21T08:47:56.417Z,76.45
2018-06-21T08:48:56.175Z,76.30
2018-06-21T08:49:56.195Z,73.28
2018-06-21T08:50:56.040Z,74.05
2018-06-21T08:51:55.982Z,76.13
2018-06-21T08:52:55.829Z,78.08
2018-06-21T08:53:56.769Z,78.75
2018-06-21T08:54:55.843Z,79.52
2018-06-21T08:55:58.147Z,78.69
2018-06-21T08:56:55.644Z,76.86
2018-06-21T08:57:55.476Z,77.83
2018-06-21T08:58:55.417Z,75.67
2018-06-21T09:01:37.438Z,72.67
2018-06-21T09:04:19.394Z,72.63
2018-06-21T09:05:19.373Z,75.26
2018-06-21T09:06:19.284Z,76.67
2018-06-21T09:07:19.209Z,77.26
2018-06-21T09:08:19.127Z,77.84
2018-06-21T09:11:01.406Z,70.94
2018-06-21T09:12:02.383Z,69.42
2018-06-21T09:13:01.289Z,68.71
2018-06-21T09:15:43.414Z,66.08
2018-06-21T09:16:43.393Z,66.85
2018-06-21T09:17:43.298Z,67.30
2018-06-21T09:18:43.188Z,65.05
2018-06-21T09:19:43.104Z,62.82
2018-06-21T09:22:25.428Z,63.40
2018-06-21T09:23:25.359Z,64.43
2018-06-21T09:24:25.261Z,64.56
2018-06-21T09:27:07.434Z,66.14
2018-06-21T09:28:08.388Z,67.40
2018-06-21T09:29:07.262Z,69.38
2018-06-21T09:31:49.421Z,72.14
2018-06-21T09:32:49.347Z,72.43
2018-06-21T09:33:49.297Z,72.14
2018-06-21T09:34:49.205Z,72.14
2018-06-21T09:35:49.134Z,72.05
2018-06-21T09:38:31.434Z,74.22
2018-06-21T09:39:31.338Z,74.09
2018-06-21T09:40:31.264Z,74.82
2018-06-21T09:41:31.199Z,76.26
2018-06-21T09:42:31.149Z,76.36
2018-06-21T09:43:31.095Z,76.40
2018-06-21T09:44:30.989Z,72.72
2018-06-21T09:47:12.927Z,66.85
2018-06-21T09:48:12.879Z,66.30
2018-06-21T09:49:12.792Z,66.17
2018-06-21T09:51:54.932Z,67.10
2018-06-21T09:54:36.945Z,64.27
2018-06-21T09:57:18.910Z,61.79
2018-06-21T09:58:18.860Z,62.24
2018-06-21T09:59:18.806Z,61.40
2018-06-21T10:00:18.705Z,59.88
2018-06-21T10:01:18.629Z,59.97
2018-06-21T10:02:18.590Z,59.72
2018-06-21T10:03:18.495Z,61.46
2018-06-21T10:04:18.426Z,62.76
2018-06-21T10:05:18.393Z,64.59
2018-06-21T10:06:18.272Z,66.04
2018-06-21T10:07:18.198Z,67.84
2018-06-21T10:08:18.153Z,68.68
2018-06-21T10:09:18.068Z,67.30
2018-06-21T10:10:18.005Z,64.95
2018-06-21T10:11:17.934Z,64.11
2018-06-21T10:13:59.932Z,62.34
2018-06-21T10:14:59.927Z,62.37
2018-06-21T10:15:59.799Z,62.40
2018-06-21T10:16:59.841Z,61.47
2018-06-21T10:17:59.646Z,61.24
2018-06-21T10:18:59.616Z,60.11
2018-06-21T10:19:59.502Z,61.28
2018-06-21T10:22:41.453Z,63.18
2018-06-21T10:23:41.416Z,63.38
2018-06-21T10:24:41.281Z,62.38
2018-06-21T10:25:41.332Z,61.96
2018-06-21T10:26:41.217Z,61.09
2018-06-21T10:27:41.150Z,59.77
2018-06-21T10:28:41.005Z,59.25
2018-06-21T10:29:41.056Z,59.25
2018-06-21T10:30:40.871Z,59.00
2018-06-21T10:31:40.834Z,60.09
2018-06-21T10:32:40.742Z,60.64
2018-06-21T10:33:40.665Z,62.22
2018-06-21T10:34:40.582Z,62.09
2018-06-21T10:35:40.571Z,63.95
2018-06-21T10:36:40.462Z,64.02
2018-06-21T10:37:40.429Z,61.90
2018-06-21T10:38:40.342Z,59.06
2018-06-21T10:39:42.355Z,57.06
2018-06-21T10:40:40.156Z,55.09
2018-06-21T10:41:41.164Z,54.97
2018-06-21T10:42:40.134Z,54.19
2018-06-21T10:45:21.938Z,54.99
2018-06-21T10:48:03.994Z,55.35
2018-06-21T10:49:03.984Z,54.80
2018-06-21T10:50:03.799Z,54.71
2018-06-21T10:51:03.828Z,53.57
2018-06-21T10:52:03.673Z,52.09
2018-06-21T10:53:03.642Z,54.17
2018-06-21T10:54:03.564Z,54.03
2018-06-21T10:55:03.488Z,53.25
2018-06-21T10:56:03.402Z,51.90
2018-06-21T10:57:03.350Z,52.48
2018-06-21T10:58:03.234Z,52.65
2018-06-21T10:59:03.310Z,54.86
2018-06-21T11:00:03.121Z,55.08
2018-06-21T11:01:03.162Z,54.11
2018-06-21T11:02:02.968Z,54.11
2018-06-21T11:03:03.020Z,54.74
2018-06-21T11:04:02.835Z,55.70
2018-06-21T11:05:02.774Z,54.60
2018-06-21T11:06:02.692Z,53.37
2018-06-21T11:07:02.693Z,52.59
2018-06-21T11:08:02.613Z,53.15
2018-06-21T11:10:44.450Z,52.35
2018-06-21T11:11:44.493Z,53.19
2018-06-21T11:12:44.345Z,53.09
2018-06-21T11:13:44.349Z,51.39
2018-06-21T11:14:44.193Z,49.73
2018-06-21T11:17:26.449Z,46.25
2018-06-21T11:18:26.427Z,47.24
2018-06-21T11:19:26.305Z,46.58
2018-06-21T11:22:08.466Z,48.47
2018-06-21T11:24:50.483Z,49.58
2018-06-21T11:25:50.441Z,48.28
2018-06-21T11:26:50.417Z,48.69
2018-06-21T11:29:32.499Z,46.49
2018-06-21T11:30:32.445Z,46.44
2018-06-21T11:31:32.320Z,46.51
2018-06-21T11:32:32.250Z,47.09
2018-06-21T11:33:32.177Z,46.64
2018-06-21T11:34:32.136Z,47.87
2018-06-21T11:35:32.032Z,48.61
2018-06-21T11:36:32.063Z,48.35
2018-06-21T11:37:31.909Z,48.37
2018-06-21T11:38:31.885Z,48.90
2018-06-21T11:39:31.766Z,46.97
2018-06-21T11:40:32.774Z,46.30
2018-06-21T11:41:31.660Z,47.29
2018-06-21T11:42:31.613Z,47.67
2018-06-21T11:43:31.484Z,48.88
2018-06-21T11:44:31.545Z,49.80
2018-06-21T11:45:31.365Z,49.85
2018-06-21T11:46:31.327Z,48.01
2018-06-21T11:47:31.229Z,48.79
2018-06-21T11:48:31.245Z,48.42
2018-06-21T11:49:31.076Z,48.30
2018-06-21T11:50:31.087Z,49.99
2018-06-21T11:51:30.949Z,47.63
2018-06-21T11:54:12.991Z,46.78
2018-06-21T11:56:55.191Z,47.17
2018-06-21T11:57:54.944Z,47.19
2018-06-21T11:58:54.833Z,47.48
2018-06-21T11:59:54.846Z,47.09
2018-06-21T12:00:54.723Z,47.75
2018-06-21T12:03:36.975Z,50.23
2018-06-21T12:04:36.964Z,50.42
2018-06-21T12:05:36.855Z,50.62
2018-06-21T12:06:36.799Z,50.86
2018-06-21T12:07:36.751Z,49.60
2018-06-21T12:10:19.071Z,51.75
2018-06-21T12:11:19.072Z,51.84
2018-06-21T12:12:18.819Z,52.81
2018-06-21T12:13:18.757Z,52.59
2018-06-21T12:14:18.668Z,52.97
2018-06-21T12:17:01.014Z,52.87
2018-06-21T12:19:42.978Z,51.79
2018-06-21T12:22:25.005Z,51.43
2018-06-21T12:25:06.972Z,51.24
2018-06-21T12:26:06.981Z,50.15
2018-06-21T12:27:06.844Z,50.73
2018-06-21T12:28:06.741Z,51.05
2018-06-21T12:29:06.666Z,51.92
2018-06-21T12:30:06.598Z,50.09
2018-06-21T12:31:06.507Z,49.22
2018-06-21T12:32:07.496Z,49.96
2018-06-21T12:33:06.372Z,50.57
2018-06-21T12:34:06.302Z,50.35
2018-06-21T12:35:06.202Z,51.34
2018-06-21T12:37:48.519Z,51.82
2018-06-21T12:38:48.421Z,52.97
2018-06-21T12:39:48.337Z,52.87
2018-06-21T12:40:48.261Z,52.85
2018-06-21T12:41:48.175Z,53.17
2018-06-21T12:42:48.143Z,51.62
2018-06-21T12:43:48.062Z,49.32
2018-06-21T12:44:47.948Z,48.25
2018-06-21T12:45:47.863Z,47.97
2018-06-21T12:48:30.188Z,48.66
2018-06-21T12:49:29.993Z,48.16
2018-06-21T12:50:29.856Z,47.19
2018-06-21T12:51:29.996Z,48.54
2018-06-21T12:52:30.058Z,47.94
2018-06-21T12:53:29.615Z,48.43
2018-06-21T12:54:29.544Z,48.61
2018-06-21T12:55:30.466Z,48.54
2018-06-21T12:56:29.476Z,49.53
2018-06-21T12:57:29.357Z,48.57
2018-06-21T12:58:29.285Z,48.88
2018-06-21T13:01:16.141Z,48.25
2018-06-21T13:03:58.018Z,49.87
2018-06-21T13:04:58.958Z,50.04
2018-06-21T13:05:57.853Z,50.06
2018-06-21T13:06:57.766Z,49.48
2018-06-21T13:07:57.683Z,49.38
2018-06-21T13:08:57.641Z,50.73
2018-06-21T13:09:57.530Z,50.76
2018-06-21T13:10:57.481Z,49.41
2018-06-21T13:11:57.367Z,48.52
2018-06-21T13:12:57.292Z,49.51
2018-06-21T13:13:57.246Z,49.70
2018-06-21T13:14:57.158Z,49.51
2018-06-21T13:15:57.086Z,50.15
2018-06-21T13:16:58.995Z,51.50
2018-06-21T13:17:56.905Z,51.62
2018-06-21T13:18:56.840Z,51.41
2018-06-21T13:19:56.763Z,50.45
2018-06-21T13:20:56.710Z,50.83
2018-06-21T13:21:56.688Z,50.71
2018-06-21T13:22:56.542Z,51.67
2018-06-21T13:23:56.461Z,51.76
2018-06-21T13:24:56.685Z,52.15
2018-06-21T13:25:56.450Z,53.02
2018-06-21T13:26:57.246Z,52.18
2018-06-21T13:27:56.148Z,52.47
2018-06-21T13:28:56.076Z,52.85
2018-06-21T13:29:55.986Z,52.18
2018-06-21T13:30:56.932Z,51.72
2018-06-21T13:31:55.842Z,50.76
2018-06-21T13:32:55.769Z,51.56
2018-06-21T13:33:55.676Z,51.24
2018-06-21T13:36:38.088Z,50.42
2018-06-21T13:37:37.448Z,51.38
2018-06-21T13:38:37.353Z,50.61
2018-06-21T13:39:37.372Z,50.32
2018-06-21T13:40:37.213Z,51.41
2018-06-21T13:43:19.554Z,50.59
2018-06-21T13:44:19.424Z,51.26
2018-06-21T13:45:19.377Z,51.84
2018-06-21T13:46:19.317Z,51.33
2018-06-21T13:47:19.225Z,51.35
2018-06-21T13:48:19.222Z,50.30
2018-06-21T13:49:19.046Z,50.68
2018-06-21T13:50:18.998Z,50.68
2018-06-21T13:51:18.877Z,50.68
2018-06-21T13:52:19.914Z,51.45
2018-06-21T13:53:18.807Z,51.64
2018-06-21T13:54:18.649Z,51.55
2018-06-21T13:55:18.600Z,51.74
2018-06-21T13:58:00.554Z,51.62
2018-06-21T13:59:00.445Z,51.91
2018-06-21T14:00:00.370Z,52.10
2018-06-21T14:01:00.350Z,51.91
2018-06-21T14:02:00.221Z,51.26
2018-06-21T14:03:00.323Z,51.55
2018-06-21T14:04:00.180Z,51.57
2018-06-21T14:05:00.114Z,50.61
2018-06-21T14:05:59.893Z,50.13
2018-06-21T14:08:42.140Z,50.23
2018-06-21T14:09:42.004Z,50.13
2018-06-21T14:10:41.883Z,49.46
2018-06-21T14:11:41.900Z,49.36
2018-06-21T14:12:41.706Z,49.65
2018-06-21T14:13:41.745Z,49.91
2018-06-21T14:14:41.568Z,50.81
2018-06-21T14:17:23.518Z,51.57
2018-06-21T14:20:17.090Z,51.74
2018-06-21T14:21:16.993Z,51.45
2018-06-21T14:22:16.862Z,51.17
2018-06-21T14:23:16.903Z,52.22
2018-06-21T14:24:16.703Z,51.93
2018-06-21T14:25:17.663Z,51.93
2018-06-21T14:26:16.544Z,51.96
2018-06-21T14:28:58.515Z,50.61
2018-06-21T14:29:58.573Z,49.91
2018-06-21T14:30:58.467Z,51.17
2018-06-21T14:31:58.330Z,51.64
2018-06-21T14:32:58.217Z,51.64
2018-06-21T14:33:58.259Z,52.00
2018-06-21T14:34:58.042Z,52.77
2018-06-21T14:35:59.105Z,53.16
2018-06-21T14:36:57.881Z,52.97
2018-06-21T14:37:57.845Z,53.19
2018-06-21T14:38:57.735Z,52.89
2018-06-21T14:39:57.765Z,54.05
2018-06-21T14:40:57.643Z,52.99
2018-06-21T14:41:57.567Z,52.80
2018-06-21T14:42:57.451Z,53.76
2018-06-21T14:43:57.471Z,53.28
2018-06-21T14:44:57.272Z,53.57
2018-06-21T14:45:57.335Z,52.87
2018-06-21T14:46:57.127Z,53.64
2018-06-21T14:47:57.114Z,53.54
2018-06-21T14:48:57.074Z,53.64
2018-06-21T14:49:57.004Z,54.41
2018-06-21T14:50:56.829Z,54.50
2018-06-21T14:51:56.840Z,54.69
2018-06-21T14:52:56.651Z,54.41
2018-06-21T14:55:38.531Z,55.27
2018-06-21T14:56:38.548Z,54.99
2018-06-21T14:57:38.373Z,54.60
2018-06-21T14:58:38.436Z,54.67
2018-06-21T14:59:38.234Z,55.76
2018-06-21T15:00:38.252Z,55.24
2018-06-21T15:01:38.115Z,55.18
2018-06-21T15:02:38.075Z,54.79
2018-06-21T15:03:37.917Z,53.92
2018-06-21T15:06:20.092Z,54.60
2018-06-21T15:07:20.093Z,55.08
2018-06-21T15:08:19.912Z,55.18
2018-06-21T15:09:19.875Z,54.96
2018-06-21T15:10:19.848Z,55.56
2018-06-21T15:11:19.703Z,55.08
2018-06-21T15:12:19.573Z,54.99
2018-06-21T15:13:19.597Z,54.41
2018-06-21T15:14:19.409Z,55.27
2018-06-21T15:17:01.581Z,56.33
2018-06-21T15:19:43.564Z,55.46
2018-06-21T15:22:25.545Z,55.78
2018-06-21T15:25:11.581Z,56.04
2018-06-21T15:27:53.584Z,55.56
2018-06-21T15:28:53.559Z,55.66
2018-06-21T15:29:53.380Z,55.37
2018-06-21T15:57:36.300Z,58.32
2018-06-21T15:58:34.979Z,57.84
2018-06-21T16:01:17.083Z,59.38
2018-06-21T16:02:17.036Z,58.80
2018-06-21T16:03:16.895Z,58.51
2018-06-21T16:04:16.846Z,58.96
2018-06-21T16:05:16.750Z,59.44
2018-06-21T16:06:16.759Z,59.73
2018-06-21T16:07:16.588Z,60.40
2018-06-21T16:08:16.563Z,59.64
2018-06-21T16:09:16.436Z,60.40
2018-06-21T16:10:16.405Z,59.92
2018-06-21T16:29:39.077Z,60.38
2018-06-21T16:30:38.936Z,61.17
2018-06-21T16:31:39.032Z,60.78
2018-06-21T16:32:38.754Z,61.17
2018-06-21T16:33:39.244Z,60.98
2018-06-21T16:34:38.607Z,61.27
2018-06-21T16:37:20.572Z,61.08
2018-06-21T16:38:41.456Z,60.95
2018-06-21T16:39:20.391Z,61.81
2018-06-21T16:40:22.409Z,62.10
2018-06-21T16:41:20.243Z,62.10
2018-06-21T16:42:20.564Z,62.01
2018-06-21T16:43:20.073Z,61.81
2018-06-21T16:44:20.103Z,62.10